CheckWX is a tool to help pilots better visualize weather data.  It is not intended as a substitute for an official pre-flight weather briefing.

09:55:34 UTC

KMOR METAR
Moore-Murrell Airport
Morristown, Tennessee, USA
Current

21 mins ago

KMOR 180935Z AUTO 00000KT 10SM FEW041 SCT050 08/04 A3006 RMK A01
Observed
Feb-18 @ 09:35 UTC
Visibility
10 SM
Flight Rules
VFR
Cloud Levels
  • Few at 4,100' AGL
  • Scattered at 5,000' AGL
Temperature
C / 46°F
Dewpoint
C / 39°F
Humidity
76%
Altimeter
30.06" Hg
Pressure
1017.92 hPa
Previous

41 mins ago

KMOR 180915Z AUTO 17003KT 10SM CLR 07/05 A3006 RMK A01
Observed
Feb-18 @ 09:15 UTC
Wind
  • 170° at 3 KTS
Visibility
10 SM
Flight Rules
VFR
Cloud Levels
  • Clear skies
Temperature
C / 45°F
Dewpoint
C / 41°F
Humidity
87%
Altimeter
30.06" Hg
Pressure
1017.92 hPa
Previous

1 hour ago

KMOR 180855Z AUTO 15007KT 10SM FEW050 04/02 A3007 RMK A01
Observed
Feb-18 @ 08:55 UTC
Wind
  • 150° at 7 KTS
Visibility
10 SM
Flight Rules
VFR
Cloud Levels
  • Few at 5,000' AGL
Temperature
C / 39°F
Dewpoint
C / 36°F
Humidity
87%
Altimeter
30.07" Hg
Pressure
1018.32 hPa